Mecheria Airport

DAAY · Naama, 阿尔及利亚

罗盘
风向 的 风向 170° Mecheria Airport 6/24
风: 32 kt, 7 beaufort

16 kt

28 kt
改变
0 ft 6.000 12.000 18.000 24.000 30.000
Cloud Cloud
FEW 3.000
Cloud Cloud Cloud Cloud
SCT 23.300
METAR DAAY 191100Z 17032KT 0500 BLSA FEW030 SCT233 36/02 Q1017

METAR Mecheria Airport - DAAY/MZW

Mecheria Airport是,阿尔及利亚中的中型机场。 该机场位于纬度33,52840和经度-0,24074。 该机场有2条跑道: 6/24 和 17/35. 本场的ICAO机场代码为DAAY。 该机场的IATA代码为MZW。 机场在Alger FIR中。

该航空气象观测是针对Mecheria Airport在2024年6月19日 12:00, 当地时间进行的。

机场观察

风向为170°,速度为32 kt。

可见度为500 m。

有几云在3.000 ft的高度 和 疏云,零星散落的云朵在23.300 ft的高度。 没有观察到天花板。

当前天气为吹 沙。 温度和风寒是36 °C。 露点为2 °C,相对湿度为12%。 海平面上的气压为1017 hPa (QNH)。

白天

今天,太阳从05:51升起,在20:13降落。 这适用于Mecheria Airport,世界夏令时可能有所不同。 当地时间与世界标准时间之间的时差为+1 小时。 夏令时目前正在进行中。

公司介绍

我们没有关于这个机场的公司信息。

体会

到Vliegles.nl去找飞行课程,跳伞和其他飞行体验。 浏览页面,了解Mecheria Airport附近所有可用的活动。 你也可以使用搜索功能来寻找你所在地附近的特定飞行课程、跳伞或其他飞行体验。

跑道

Id 标题 侧风 逆风 侧风 %
6/24 050°-230° 28 kt 16 kt 87 %
17/35 160°-340° 6 kt 32 kt 17 %

逆风成分最大的方向会被突出显示,并用于横风计算。 这并不一定意味着这个方向在使用。

乌云

3.000 ft FEW 几云
23.300 ft SCT 疏云,零星散落的云朵

温度 & 天气

天气 吹 沙
温度 36 °C
露点 2 °C
相对湿度 12%
Kp-index 1 (0-9)

白天

日出
05:51
中午
13:02
日落
20:13 (7:45)

小工具

你想在你的网站上有一个关于Mecheria Airport的当前航空天气(METAR)的小部件吗?

显示HTML代码
报告变更